Time;durP1;ratioP1;P1;durP2;ratioP2;P2;SDS_P1;SDS_P2;PMS_P1;PMS_P2;Temp;Humidity;BMP_temperature;BMP_pressure;BME280_temperature;BME280_humidity;BME280_pressure;Samples;Min_cycle;Max_cycle;Signal;HPM_P1;HPM_P2
2023/01/08 00:02:47;;;;;;;7.03;1.33;;;11.80;99.90;;;;;;10494539;28;20044;-28
2023/01/08 00:07:49;;;;;;;10.15;1.42;;;13.10;99.90;;;;;;10490896;28;20044;-27
2023/01/08 00:12:51;;;;;;;4.18;1.40;;;12.10;99.90;;;;;;10488416;28;20076;-27
2023/01/08 00:17:54;;;;;;;2.65;0.82;;;13.20;99.90;;;;;;10494282;28;20071;-28
2023/01/08 00:22:56;;;;;;;6.97;1.13;;;12.60;99.90;;;;;;10485548;28;20098;-27
2023/01/08 00:27:58;;;;;;;3.25;1.13;;;13.30;99.90;;;;;;10488245;28;20137;-27
2023/01/08 00:33:01;;;;;;;3.23;1.10;;;14.90;99.90;;;;;;10474917;28;20498;-26
2023/01/08 00:38:03;;;;;;;2.67;0.88;;;14.50;99.90;;;;;;10491966;28;20112;-26
2023/01/08 00:43:06;;;;;;;2.10;0.90;;;14.00;99.90;;;;;;10491768;28;20105;-26
2023/01/08 00:48:10;;;;;;;12.20;1.40;;;15.10;99.90;;;;;;10476544;28;20059;-27
2023/01/08 00:53:12;;;;;;;8.93;1.48;;;14.20;96.10;;;;;;10486625;28;20040;-27
2023/01/08 00:58:14;;;;;;;6.35;1.30;;;15.10;99.40;;;;;;10488424;28;20058;-27
2023/01/08 01:03:17;;;;;;;9.30;1.73;;;14.70;99.90;;;;;;10488889;28;20537;-28
2023/01/08 01:08:19;;;;;;;9.57;1.50;;;15.00;93.80;;;;;;10481091;28;20711;-26
2023/01/08 01:13:21;;;;;;;9.93;2.25;;;14.40;99.90;;;;;;10484073;28;20434;-26
2023/01/08 01:18:24;;;;;;;2.70;1.00;;;14.00;98.30;;;;;;10488064;28;20044;-26
2023/01/08 01:23:26;;;;;;;5.10;1.35;;;15.60;99.90;;;;;;10483498;28;20475;-27
2023/01/08 01:28:28;;;;;;;4.07;0.90;;;15.10;99.90;;;;;;10478247;28;20093;-27
2023/01/08 01:33:31;;;;;;;3.70;0.97;;;16.60;97.20;;;;;;10485883;28;20087;-26
2023/01/08 01:38:33;;;;;;;4.13;0.98;;;17.40;92.80;;;;;;10486244;28;20044;-26
2023/01/08 01:43:37;;;;;;;3.17;1.03;;;16.90;95.10;;;;;;10483998;28;20478;-26
2023/01/08 01:48:41;;;;;;;4.15;0.85;;;17.80;91.00;;;;;;10478040;28;20446;-26
2023/01/08 01:53:42;;;;;;;1.83;0.70;;;17.80;90.40;;;;;;10488172;28;21229;-26
2023/01/08 01:58:44;;;;;;;1.90;0.93;;;17.90;90.10;;;;;;10479543;28;20045;-27
2023/01/08 02:03:47;;;;;;;5.27;1.00;;;17.50;91.70;;;;;;10480751;28;20117;-25
2023/01/08 02:08:56;;;;;;;3.22;1.00;;;17.80;87.30;;;;;;10481051;28;20499;-26
2023/01/08 02:14:05;;;;;;;2.80;1.10;;;17.70;91.30;;;;;;10486839;28;20048;-25
2023/01/08 02:19:29;;;;;;;2.88;1.45;;;17.50;92.70;;;;;;10482678;28;20080;-25
2023/01/08 02:24:46;;;;;;;1.63;1.13;;;15.70;99.30;;;;;;10485240;28;20086;-27
2023/01/08 02:29:51;;;;;;;5.50;1.05;;;17.50;91.10;;;;;;10489153;28;20068;-27
2023/01/08 02:34:52;;;;;;;2.90;1.13;;;17.90;90.20;;;;;;10482987;28;20040;-27
2023/01/08 02:40:06;;;;;;;3.93;1.23;;;17.10;93.80;;;;;;10488361;28;20064;-27
2023/01/08 02:45:21;;;;;;;5.05;1.23;;;17.20;93.90;;;;;;10479698;28;20553;-27
2023/01/08 02:50:28;;;;;;;9.38;1.10;;;15.20;97.90;;;;;;10470987;28;20041;-27
2023/01/08 02:55:34;;;;;;;8.32;1.05;;;15.90;97.20;;;;;;10486426;28;20055;-26
2023/01/08 03:00:38;;;;;;;7.22;1.17;;;14.50;99.90;;;;;;10476800;28;20458;-26
2023/01/08 03:05:43;;;;;;;6.68;1.50;;;14.30;94.40;;;;;;10482856;28;20110;-26
2023/01/08 03:10:51;;;;;;;4.43;1.10;;;13.30;99.90;;;;;;10485635;28;20080;-26
2023/01/08 03:15:58;;;;;;;3.60;1.27;;;14.60;99.90;;;;;;10482068;28;20040;-27
2023/01/08 03:21:02;;;;;;;4.10;0.88;;;14.40;99.90;;;;;;10484139;28;20516;-26
2023/01/08 03:26:06;;;;;;;4.22;1.20;;;12.90;99.90;;;;;;10493257;28;20071;-26
2023/01/08 03:31:10;;;;;;;4.20;0.90;;;15.80;91.20;;;;;;10487058;28;20032;-26
2023/01/08 03:36:16;;;;;;;7.97;0.70;;;13.90;99.90;;;;;;10487306;28;20068;-26
2023/01/08 03:41:20;;;;;;;5.72;1.08;;;12.60;99.90;;;;;;10483609;28;20442;-26
2023/01/08 03:46:29;;;;;;;2.85;0.47;;;14.80;89.40;;;;;;10476523;28;20097;-25
2023/01/08 03:51:39;;;;;;;6.30;1.30;;;15.80;96.20;;;;;;10490682;28;20512;-26
2023/01/08 03:56:41;;;;;;;9.65;1.38;;;12.70;98.80;;;;;;10487517;28;20470;-26
2023/01/08 04:01:44;;;;;;;5.13;0.73;;;12.70;99.90;;;;;;10482168;28;20078;-27
2023/01/08 04:06:46;;;;;;;2.53;0.80;;;16.30;97.50;;;;;;10488454;28;20157;-25
2023/01/08 04:11:48;;;;;;;4.73;0.90;;;16.00;87.60;;;;;;10489555;28;20071;-27
2023/01/08 04:16:51;;;;;;;2.57;0.73;;;14.90;99.90;;;;;;10491744;28;20490;-27
2023/01/08 04:21:53;;;;;;;5.93;1.42;;;15.20;90.80;;;;;;10488016;28;20591;-26
2023/01/08 04:26:55;;;;;;;4.27;0.93;;;14.70;87.50;;;;;;10490514;28;20142;-27
2023/01/08 04:31:58;;;;;;;3.67;0.80;;;14.70;99.90;;;;;;10485317;28;20493;-27
2023/01/08 04:37:00;;;;;;;5.25;1.10;;;15.90;97.20;;;;;;10487131;28;20548;-27
2023/01/08 04:42:02;;;;;;;2.90;0.57;;;13.40;99.90;;;;;;10475416;28;20049;-26
2023/01/08 04:47:05;;;;;;;2.33;0.63;;;15.70;99.60;;;;;;10483065;28;20144;-25
2023/01/08 04:52:07;;;;;;;4.15;1.00;;;16.40;95.80;;;;;;10482090;28;20065;-25
2023/01/08 04:57:09;;;;;;;4.90;0.93;;;16.50;92.90;;;;;;10489218;28;20559;-26
2023/01/08 05:02:13;;;;;;;2.17;0.70;;;16.90;92.20;;;;;;10490865;28;20064;-26
2023/01/08 05:07:15;;;;;;;6.25;0.77;;;16.80;91.60;;;;;;10490422;28;20048;-25
2023/01/08 05:12:17;;;;;;;6.17;1.17;;;15.80;97.60;;;;;;10488633;28;20041;-26
2023/01/08 05:17:21;;;;;;;2.03;0.70;;;15.20;99.50;;;;;;10480738;28;20557;-25
2023/01/08 05:22:23;;;;;;;2.53;0.60;;;16.40;95.20;;;;;;10481753;28;20049;-25
2023/01/08 05:27:25;;;;;;;5.22;0.82;;;17.20;90.10;;;;;;10481531;28;20242;-26
2023/01/08 05:32:28;;;;;;;9.57;1.20;;;17.30;90.80;;;;;;10485086;28;20425;-25
2023/01/08 05:37:30;;;;;;;2.97;0.75;;;16.70;76.50;;;;;;10485517;28;20107;-26
2023/01/08 05:42:34;;;;;;;3.50;1.10;;;16.10;96.00;;;;;;10483301;28;20072;-26
2023/01/08 05:47:37;;;;;;;4.50;1.20;;;15.10;98.70;;;;;;10486338;28;20040;-26
2023/01/08 05:52:39;;;;;;;4.05;1.08;;;15.40;98.60;;;;;;10487922;28;20072;-26
2023/01/08 05:57:41;;;;;;;5.93;0.90;;;14.80;86.30;;;;;;10484834;28;20437;-26
2023/01/08 06:02:47;;;;;;;5.50;1.80;;;16.50;91.80;;;;;;10469161;28;20080;-26
2023/01/08 06:07:49;;;;;;;6.22;0.95;;;16.30;95.00;;;;;;10473711;28;20049;-26
2023/01/08 06:12:51;;;;;;;1.50;0.60;;;16.00;95.50;;;;;;10478099;28;20090;-27
2023/01/08 06:17:56;;;;;;;2.97;1.20;;;17.00;92.40;;;;;;10473429;28;20056;-27
2023/01/08 06:22:58;;;;;;;6.35;1.00;;;17.70;71.40;;;;;;10489049;28;20145;-26
2023/01/08 06:27:59;;;;;;;1.67;0.82;;;18.00;85.60;;;;;;10485116;28;20045;-27
2023/01/08 06:33:03;;;;;;;1.60;0.70;;;17.60;91.40;;;;;;10490706;28;20045;-27
2023/01/08 06:38:05;;;;;;;2.88;0.60;;;17.70;90.50;;;;;;10494824;28;20486;-27
2023/01/08 06:43:06;;;;;;;2.45;0.60;;;18.00;88.70;;;;;;10495841;28;20044;-26
2023/01/08 06:48:10;;;;;;;3.40;1.13;;;18.10;87.40;;;;;;10482515;28;20064;-27
2023/01/08 06:53:11;;;;;;;3.58;0.80;;;17.50;90.80;;;;;;10468968;28;20088;-26
2023/01/08 06:58:13;;;;;;;2.73;0.80;;;17.60;85.30;;;;;;10474383;28;20041;-25
2023/01/08 07:15:17;;;;;;;7.07;1.33;;;18.30;85.40;;;;;;10516724;27;1503126;-24
2023/01/08 07:20:19;;;;;;;4.07;1.23;;;17.40;87.10;;;;;;10543418;28;20048;-24
2023/01/08 07:25:20;;;;;;;2.55;0.70;;;17.70;90.10;;;;;;10557071;28;20071;-25
2023/01/08 07:30:24;;;;;;;8.80;0.88;;;18.40;85.60;;;;;;10541197;28;20065;-26
2023/01/08 07:35:26;;;;;;;2.40;0.60;;;17.90;81.00;;;;;;10546593;28;20060;-24
2023/01/08 07:40:28;;;;;;;2.45;0.88;;;18.00;88.50;;;;;;10544984;28;20504;-24
2023/01/08 07:45:31;;;;;;;3.50;1.05;;;18.10;87.40;;;;;;10549035;28;20526;-25
2023/01/08 07:50:33;;;;;;;4.03;0.85;;;17.50;91.20;;;;;;10559873;28;20506;-24
2023/01/08 07:55:35;;;;;;;5.23;0.53;;;18.20;86.20;;;;;;10546070;28;20377;-28
2023/01/08 08:00:39;;;;;;;4.30;0.60;;;17.70;89.50;;;;;;10553040;28;20048;-25
2023/01/08 08:05:40;;;;;;;3.30;1.02;;;17.60;90.40;;;;;;10556032;28;20447;-24
2023/01/08 08:10:43;;;;;;;9.83;1.40;;;17.30;90.20;;;;;;10557234;28;20087;-25
2023/01/08 08:15:46;;;;;;;;;;;16.60;85.20;;;;;;10553835;28;20141;-25
2023/01/08 08:20:50;;;;;;;8.77;1.00;;;16.80;92.40;;;;;;10567399;28;19981;-25
2023/01/08 08:25:52;;;;;;;4.55;1.10;;;16.60;92.40;;;;;;10517636;28;20127;-25
2023/01/08 08:30:55;;;;;;;2.60;0.73;;;17.30;92.70;;;;;;10516193;28;20075;-25
2023/01/08 08:35:57;;;;;;;10.70;0.93;;;18.00;88.90;;;;;;10521491;28;20143;-25
2023/01/08 08:41:00;;;;;;;5.80;1.00;;;17.30;92.20;;;;;;10511796;28;20056;-23
2023/01/08 08:46:03;;;;;;;3.70;0.93;;;18.20;86.90;;;;;;10508847;28;20392;-25
2023/01/08 08:51:05;;;;;;;15.05;1.20;;;18.20;87.70;;;;;;10513777;28;20051;-25
2023/01/08 08:56:07;;;;;;;4.28;0.90;;;17.10;92.20;;;;;;10505854;28;20125;-26
2023/01/08 09:01:11;;;;;;;4.55;0.95;;;17.30;93.30;;;;;;10522064;28;20041;-27
2023/01/08 09:06:13;;;;;;;8.10;1.85;;;17.30;92.30;;;;;;10527039;28;20104;-24
2023/01/08 09:11:15;;;;;;;2.72;0.57;;;16.70;91.40;;;;;;10528366;28;20547;-25
2023/01/08 09:16:18;;;;;;;6.93;1.83;;;17.40;92.10;;;;;;10520846;28;20095;-23
2023/01/08 09:21:20;;;;;;;5.47;0.90;;;16.20;97.80;;;;;;10521559;28;20473;-26
2023/01/08 09:26:22;;;;;;;8.33;1.23;;;16.00;98.00;;;;;;10520990;28;20037;-24
2023/01/08 09:31:26;;;;;;;5.07;1.07;;;14.20;91.10;;;;;;10519124;28;20143;-24
2023/01/08 09:36:28;;;;;;;6.57;0.90;;;17.50;93.20;;;;;;10505597;28;20080;-24
2023/01/08 09:41:33;;;;;;;4.13;1.13;;;18.30;90.10;;;;;;10512857;28;20071;-25
2023/01/08 09:46:37;;;;;;;8.80;1.40;;;17.30;94.40;;;;;;10505809;28;20074;-25
2023/01/08 09:51:39;;;;;;;4.80;1.30;;;18.50;87.30;;;;;;10516676;28;20155;-25
2023/01/08 09:56:41;;;;;;;9.85;1.40;;;18.80;84.60;;;;;;10512216;28;20433;-25
2023/01/08 10:01:45;;;;;;;5.45;1.00;;;18.90;82.20;;;;;;10525595;28;20048;-24
2023/01/08 10:06:51;;;;;;;4.07;1.10;;;19.00;83.90;;;;;;10521273;28;20071;-25
2023/01/08 10:11:57;;;;;;;5.20;0.80;;;18.10;85.30;;;;;;10524523;28;20056;-25
2023/01/08 10:17:05;;;;;;;7.03;1.45;;;18.80;88.40;;;;;;10516571;28;20137;-24
2023/01/08 10:22:12;;;;;;;8.07;1.48;;;18.60;88.80;;;;;;10524430;28;20055;-24
2023/01/08 10:27:17;;;;;;;3.53;1.17;;;17.90;92.60;;;;;;10525795;28;20093;-25
2023/01/08 10:32:24;;;;;;;13.23;1.75;;;18.40;89.70;;;;;;10514482;28;20495;-24
2023/01/08 10:37:28;;;;;;;3.13;1.17;;;18.60;87.20;;;;;;10520053;28;20536;-24
2023/01/08 10:42:34;;;;;;;11.02;1.48;;;18.30;91.80;;;;;;10508032;28;20079;-23
2023/01/08 10:47:38;;;;;;;6.28;1.73;;;18.70;90.00;;;;;;10523205;28;20615;-24
2023/01/08 10:52:40;;;;;;;4.05;0.98;;;18.30;91.50;;;;;;10512589;28;20151;-26
2023/01/08 10:57:52;;;;;;;9.07;1.05;;;18.00;90.80;;;;;;10510821;28;20443;-25
2023/01/08 11:02:57;;;;;;;6.00;0.90;;;18.40;91.00;;;;;;10511897;28;20059;-25
2023/01/08 11:08:01;;;;;;;4.20;0.93;;;18.80;74.60;;;;;;10523554;28;20048;-27
2023/01/08 11:13:05;;;;;;;5.05;1.00;;;18.00;93.10;;;;;;10518020;28;20477;-24
2023/01/08 11:18:18;;;;;;;8.52;1.52;;;19.00;85.70;;;;;;10519995;28;20165;-25
2023/01/08 11:23:23;;;;;;;5.22;1.02;;;18.70;86.10;;;;;;10502471;28;20093;-26
2023/01/08 11:28:33;;;;;;;4.40;0.85;;;18.70;88.50;;;;;;10503833;28;20544;-26
2023/01/08 11:33:39;;;;;;;6.65;1.25;;;18.10;65.70;;;;;;10518079;28;20085;-27
2023/01/08 11:38:41;;;;;;;3.67;1.30;;;16.80;91.90;;;;;;10509695;28;20410;-24
2023/01/08 11:44:00;;;;;;;4.67;1.30;;;16.90;80.30;;;;;;10504910;28;20079;-25
2023/01/08 11:49:24;;;;;;;2.92;0.90;;;14.90;81.50;;;;;;10510055;28;20048;-25
2023/01/08 11:54:46;;;;;;;5.65;1.70;;;16.80;96.40;;;;;;10512793;28;20116;-24
2023/01/08 12:00:00;;;;;;;6.45;1.80;;;16.20;89.30;;;;;;10511338;28;20079;-25
2023/01/08 12:05:22;;;;;;;6.00;1.45;;;15.30;99.90;;;;;;10517254;28;20151;-24
2023/01/08 12:10:32;;;;;;;3.83;1.00;;;17.10;71.00;;;;;;10509276;28;20549;-25
2023/01/08 12:15:43;;;;;;;5.05;0.98;;;17.60;92.50;;;;;;10511780;28;20397;-24
2023/01/08 12:20:54;;;;;;;3.72;1.00;;;18.20;90.50;;;;;;10506061;28;20052;-26
2023/01/08 12:26:09;;;;;;;3.00;1.15;;;18.00;92.20;;;;;;10503124;28;20123;-27
2023/01/08 12:31:40;;;;;;;4.60;1.00;;;17.10;95.00;;;;;;10511512;28;20036;-27
2023/01/08 12:36:48;;;;;;;3.83;0.90;;;17.80;93.00;;;;;;10506318;28;20056;-24
2023/01/08 12:41:56;;;;;;;2.72;0.90;;;18.70;85.80;;;;;;10507557;28;20523;-28
2023/01/08 12:47:02;;;;;;;1.95;0.70;;;17.30;94.20;;;;;;10504157;28;20079;-24
2023/01/08 12:52:11;;;;;;;6.50;1.50;;;19.00;83.10;;;;;;10519448;28;20101;-28
2023/01/08 12:57:19;;;;;;;3.88;1.15;;;17.60;93.80;;;;;;10522387;28;20153;-24
2023/01/08 13:02:37;;;;;;;2.40;0.88;;;18.30;88.00;;;;;;10523920;28;20040;-24
2023/01/08 13:07:44;;;;;;;4.18;0.70;;;18.10;91.30;;;;;;10529713;28;20076;-25
2023/01/08 13:12:51;;;;;;;4.43;0.60;;;19.10;82.20;;;;;;10522607;28;20113;-24
2023/01/08 13:17:55;;;;;;;5.07;1.00;;;18.90;82.90;;;;;;10524023;28;20048;-24
2023/01/08 13:23:01;;;;;;;7.68;0.73;;;18.10;91.40;;;;;;10518265;28;20128;-24
2023/01/08 13:28:25;;;;;;;5.82;1.60;;;19.50;69.30;;;;;;10504744;28;20552;-26
2023/01/08 13:33:38;;;;;;;5.88;1.00;;;19.00;86.60;;;;;;10525762;28;20484;-26
2023/01/08 13:38:42;;;;;;;4.05;0.70;;;19.10;85.00;;;;;;10509318;28;20399;-26
2023/01/08 13:43:45;;;;;;;4.18;0.82;;;17.70;93.00;;;;;;10524046;28;20062;-25
2023/01/08 13:48:57;;;;;;;3.80;0.90;;;19.40;81.90;;;;;;10513895;28;20059;-25
2023/01/08 13:54:08;;;;;;;1.40;0.90;;;19.60;77.90;;;;;;10504412;28;20087;-26
2023/01/08 13:59:20;;;;;;;3.65;0.65;;;19.70;76.80;;;;;;10519588;28;20614;-25
2023/01/08 14:04:23;;;;;;;1.98;0.77;;;19.40;78.40;;;;;;10517109;28;20126;-24
2023/01/08 14:09:26;;;;;;;2.78;0.70;;;19.60;78.00;;;;;;10499951;28;20362;-25
2023/01/08 14:14:28;;;;;;;4.88;0.95;;;19.60;76.80;;;;;;10517074;28;20088;-24
2023/01/08 14:19:31;;;;;;;4.00;0.70;;;19.10;78.20;;;;;;10516976;28;20055;-27
2023/01/08 14:24:34;;;;;;;3.22;0.68;;;18.60;85.50;;;;;;10505272;28;20102;-25
2023/01/08 14:29:36;;;;;;;5.32;1.15;;;18.80;82.60;;;;;;10500048;28;20114;-25
2023/01/08 14:34:40;;;;;;;3.25;0.80;;;19.70;74.00;;;;;;10499194;28;20393;-29
2023/01/08 14:39:44;;;;;;;4.72;0.77;;;19.50;76.60;;;;;;10500780;28;20066;-25
2023/01/08 14:44:47;;;;;;;4.00;1.08;;;19.30;75.80;;;;;;10494926;28;20786;-25
2023/01/08 14:49:52;;;;;;;4.78;0.88;;;19.90;71.60;;;;;;10500275;28;20127;-24
2023/01/08 14:54:58;;;;;;;6.25;1.25;;;18.90;72.80;;;;;;10513373;28;20044;-26
2023/01/08 15:00:02;;;;;;;2.35;0.73;;;19.40;74.60;;;;;;10508853;28;20040;-30
2023/01/08 15:05:14;;;;;;;2.05;0.80;;;19.30;74.70;;;;;;10512920;28;20132;-26
2023/01/08 15:10:33;;;;;;;4.75;1.00;;;19.90;70.10;;;;;;10515616;28;20056;-25
2023/01/08 15:15:40;;;;;;;5.40;0.75;;;20.10;69.50;;;;;;10498417;28;20143;-24
2023/01/08 15:20:44;;;;;;;1.58;0.73;;;20.10;68.70;;;;;;10521842;28;20101;-27
2023/01/08 15:25:48;;;;;;;3.10;0.77;;;20.10;68.70;;;;;;10506666;28;20501;-25
2023/01/08 15:30:50;;;;;;;6.55;1.13;;;20.20;68.10;;;;;;10520570;28;20079;-26
2023/01/08 15:35:52;;;;;;;4.70;0.75;;;20.30;67.30;;;;;;10520027;28;20174;-22
2023/01/08 15:40:55;;;;;;;4.95;0.98;;;19.90;69.00;;;;;;10526311;28;20376;-25
2023/01/08 15:45:57;;;;;;;3.67;1.48;;;20.10;68.30;;;;;;10526638;28;20048;-25
2023/01/08 15:50:59;;;;;;;5.32;1.17;;;19.70;71.40;;;;;;10527394;28;20117;-25
2023/01/08 15:56:02;;;;;;;1.60;1.00;;;20.00;69.20;;;;;;10512517;28;20128;-25
2023/01/08 16:01:05;;;;;;;5.75;0.80;;;20.00;69.80;;;;;;10529584;28;20071;-25
2023/01/08 16:06:08;;;;;;;3.80;0.77;;;19.90;66.00;;;;;;10519599;28;20048;-25
2023/01/08 16:11:11;;;;;;;2.63;0.60;;;20.10;68.60;;;;;;10516563;28;20044;-28
2023/01/08 16:16:14;;;;;;;4.57;0.88;;;19.90;68.00;;;;;;10524500;28;20086;-25
2023/01/08 16:21:16;;;;;;;3.05;0.88;;;19.70;64.10;;;;;;10517382;28;20048;-25
2023/01/08 16:26:20;;;;;;;4.18;0.85;;;20.10;68.10;;;;;;10520109;28;20044;-25
2023/01/08 16:31:21;;;;;;;5.13;1.05;;;20.20;66.20;;;;;;10521763;28;20086;-26
2023/01/08 16:36:23;;;;;;;5.05;1.15;;;20.10;68.90;;;;;;10521661;28;20087;-25
2023/01/08 16:41:26;;;;;;;3.92;0.95;;;20.20;68.80;;;;;;10514207;28;20564;-26
2023/01/08 16:46:28;;;;;;;4.85;1.05;;;20.20;67.50;;;;;;10509593;28;20511;-25
2023/01/08 16:51:31;;;;;;;4.95;0.75;;;20.20;67.50;;;;;;10517067;28;20059;-26
2023/01/08 16:56:34;;;;;;;;;;;20.10;67.40;;;;;;10516716;28;20094;-24
2023/01/08 17:01:36;;;;;;;4.38;1.08;;;20.30;67.10;;;;;;10517730;28;19927;-26
2023/01/08 17:06:38;;;;;;;8.93;1.20;;;20.20;66.30;;;;;;10519549;28;20096;-24
2023/01/08 17:11:42;;;;;;;5.75;1.35;;;20.10;66.50;;;;;;10525381;28;20815;-26
2023/01/08 17:16:46;;;;;;;5.47;1.45;;;20.20;66.90;;;;;;10513486;28;20097;-27
2023/01/08 17:21:49;;;;;;;7.10;1.00;;;19.60;67.80;;;;;;10517505;28;20048;-26
2023/01/08 17:26:52;;;;;;;2.03;0.82;;;20.00;68.50;;;;;;10522239;28;20086;-24
2023/01/08 17:31:54;;;;;;;5.15;1.00;;;20.00;63.70;;;;;;10519474;28;20137;-27
2023/01/08 17:36:56;;;;;;;3.75;1.25;;;20.10;68.10;;;;;;10522735;28;20060;-28
2023/01/08 17:47:19;;;;;;;9.57;2.17;;;20.00;68.00;;;;;;10524136;28;20052;-23
2023/01/08 17:52:23;;;;;;;12.65;1.63;;;20.00;68.30;;;;;;10507648;28;20045;-27
2023/01/08 17:57:30;;;;;;;10.93;1.58;;;20.20;68.00;;;;;;10525292;28;20122;-24
2023/01/08 18:02:32;;;;;;;5.32;1.40;;;20.10;67.90;;;;;;10534282;28;20048;-25
2023/01/08 18:07:34;;;;;;;9.32;2.13;;;20.00;68.60;;;;;;10517261;28;20513;-24
2023/01/08 18:12:37;;;;;;;9.00;1.88;;;20.00;67.90;;;;;;10530289;28;20091;-24
2023/01/08 18:17:39;;;;;;;11.23;1.33;;;20.00;67.90;;;;;;10517769;28;20048;-26
2023/01/08 18:22:41;;;;;;;2.78;0.90;;;20.10;67.70;;;;;;10526611;28;20051;-25
2023/01/08 18:27:45;;;;;;;5.85;1.27;;;20.10;67.50;;;;;;10506968;28;20120;-24
2023/01/08 18:32:46;;;;;;;6.90;1.92;;;20.00;67.70;;;;;;10517594;28;20104;-28
2023/01/08 18:37:48;;;;;;;6.20;1.15;;;20.00;67.40;;;;;;10511520;28;20094;-26
2023/01/08 18:42:52;;;;;;;8.55;1.88;;;19.80;68.50;;;;;;10514944;28;20060;-25
2023/01/08 18:47:54;;;;;;;6.38;1.23;;;20.00;67.00;;;;;;10515826;28;20519;-25
2023/01/08 18:52:56;;;;;;;5.25;1.20;;;19.90;66.00;;;;;;10522903;28;20052;-25
2023/01/08 18:57:59;;;;;;;1.08;0.63;;;19.90;65.70;;;;;;10515503;28;20040;-25
2023/01/08 19:03:01;;;;;;;4.15;1.17;;;19.80;66.30;;;;;;10518992;28;20094;-26
2023/01/08 19:08:03;;;;;;;4.43;1.25;;;19.70;65.90;;;;;;10517967;28;20484;-25
2023/01/08 19:13:07;;;;;;;6.65;1.42;;;19.80;65.40;;;;;;10514104;28;20064;-26
2023/01/08 19:18:08;;;;;;;7.97;1.08;;;19.50;64.30;;;;;;10502676;28;20110;-26
2023/01/08 19:23:11;;;;;;;2.97;1.05;;;19.90;64.90;;;;;;10523037;28;20124;-26
2023/01/08 19:28:14;;;;;;;3.60;1.02;;;19.90;64.90;;;;;;10521603;28;20052;-26
2023/01/08 19:33:16;;;;;;;3.60;1.15;;;19.70;65.80;;;;;;10510177;28;20489;-25
2023/01/08 19:38:19;;;;;;;4.20;1.05;;;20.00;63.80;;;;;;10500904;28;20056;-25
2023/01/08 19:48:42;;;;;;;5.35;0.98;;;20.00;63.60;;;;;;10511074;28;19932;-25
2023/01/08 19:53:44;;;;;;;3.47;1.00;;;20.00;63.30;;;;;;10514845;28;20040;-25
2023/01/08 19:58:47;;;;;;;3.38;1.08;;;20.00;64.00;;;;;;10521199;28;20049;-24
2023/01/08 20:03:50;;;;;;;9.43;1.50;;;20.00;64.40;;;;;;10520605;28;20128;-25
2023/01/08 20:08:53;;;;;;;;;;;20.00;64.60;;;;;;10516237;28;20049;-26
2023/01/08 20:13:59;;;;;;;;;;;19.90;65.00;;;;;;10502471;28;20589;-25
2023/01/08 20:19:03;;;;;;;9.77;1.13;;;20.00;64.40;;;;;;10505354;28;19924;-25
2023/01/08 20:24:08;;;;;;;3.88;1.02;;;20.10;64.10;;;;;;10510620;28;20481;-24
2023/01/08 20:29:13;;;;;;;4.97;1.02;;;19.90;64.20;;;;;;10514310;28;20048;-27
2023/01/08 20:34:16;;;;;;;8.43;1.30;;;20.10;63.00;;;;;;10515613;28;20552;-25
2023/01/08 20:39:18;;;;;;;4.15;1.33;;;20.10;62.70;;;;;;10504004;28;20052;-25
2023/01/08 20:44:21;;;;;;;6.32;0.95;;;19.80;64.00;;;;;;10514980;28;20488;-27
2023/01/08 20:49:25;;;;;;;6.68;1.50;;;18.80;68.20;;;;;;10503995;28;20420;-23
2023/01/08 20:54:27;;;;;;;4.85;1.42;;;19.30;63.80;;;;;;10527422;28;20044;-25
2023/01/08 20:59:31;;;;;;;7.60;1.20;;;18.80;70.90;;;;;;10510871;28;20154;-29
2023/01/08 21:04:33;;;;;;;4.47;1.25;;;13.60;94.60;;;;;;10515223;28;20114;-26
2023/01/08 21:09:35;;;;;;;4.87;1.37;;;12.80;99.60;;;;;;10518628;28;20055;-25
2023/01/08 21:14:38;;;;;;;7.37;1.40;;;14.60;93.70;;;;;;10506027;28;20578;-25
2023/01/08 21:19:40;;;;;;;7.47;1.70;;;14.50;99.90;;;;;;10503687;28;20072;-27
2023/01/08 21:24:44;;;;;;;5.40;1.10;;;15.50;95.20;;;;;;10511257;28;20568;-24
2023/01/08 21:29:47;;;;;;;5.57;1.17;;;16.20;93.90;;;;;;10504557;28;20540;-24
2023/01/08 21:34:49;;;;;;;3.10;0.95;;;16.00;96.00;;;;;;10519943;28;20052;-23
2023/01/08 21:39:51;;;;;;;8.57;0.90;;;14.90;99.90;;;;;;10520789;28;20045;-26
2023/01/08 21:50:13;;;;;;;2.00;0.73;;;16.20;93.90;;;;;;10515087;28;20575;-25
2023/01/08 21:55:16;;;;;;;3.73;0.63;;;15.30;95.60;;;;;;10525307;28;20076;-25
2023/01/08 22:00:19;;;;;;;1.92;0.60;;;14.70;93.80;;;;;;10508619;28;20080;-23
2023/01/08 22:05:21;;;;;;;3.38;0.82;;;12.90;99.90;;;;;;10508340;28;20126;-26
2023/01/08 22:10:23;;;;;;;1.40;0.73;;;14.70;99.90;;;;;;10506245;28;20067;-26
2023/01/08 22:15:27;;;;;;;8.75;2.38;;;15.00;98.40;;;;;;10501716;28;20107;-26
2023/01/08 22:20:28;;;;;;;2.15;0.80;;;14.70;99.90;;;;;;10518111;28;20098;-25
2023/01/08 22:25:30;;;;;;;1.63;0.73;;;13.60;99.90;;;;;;10524778;28;20135;-24
2023/01/08 22:30:34;;;;;;;1.23;0.80;;;11.80;99.90;;;;;;10520184;28;20127;-25
2023/01/08 22:35:38;;;;;;;3.30;0.57;;;14.20;99.90;;;;;;10512880;28;20495;-25
2023/01/08 22:40:40;;;;;;;3.00;1.25;;;13.70;99.90;;;;;;10509881;28;20082;-28
2023/01/08 22:45:43;;;;;;;6.67;0.60;;;14.00;97.00;;;;;;10505371;28;20036;-25
2023/01/08 22:50:45;;;;;;;3.92;1.05;;;14.20;92.60;;;;;;10538186;28;20101;-28
2023/01/08 22:55:47;;;;;;;5.60;1.20;;;14.50;99.90;;;;;;10508860;28;20079;-25
2023/01/08 23:00:50;;;;;;;4.32;1.30;;;13.20;98.00;;;;;;10529997;28;20485;-23
2023/01/08 23:06:00;;;;;;;4.40;0.80;;;14.60;99.90;;;;;;10511797;28;20087;-25
2023/01/08 23:11:02;;;;;;;2.35;0.73;;;13.50;91.60;;;;;;10528796;28;20532;-26
2023/01/08 23:16:08;;;;;;;5.30;0.70;;;13.60;99.90;;;;;;10525815;28;20059;-26
2023/01/08 23:21:12;;;;;;;1.58;0.80;;;14.20;93.70;;;;;;10505712;28;20057;-25
2023/01/08 23:26:17;;;;;;;3.13;0.93;;;13.80;99.90;;;;;;10506730;28;20118;-25
2023/01/08 23:31:22;;;;;;;5.80;0.98;;;13.30;99.90;;;;;;10513897;28;20044;-23
2023/01/08 23:36:25;;;;;;;5.43;0.98;;;13.90;91.20;;;;;;10521725;28;20054;-28
2023/01/08 23:41:30;;;;;;;4.78;0.95;;;13.80;99.90;;;;;;10512402;28;20071;-27
2023/01/08 23:46:34;;;;;;;5.45;1.23;;;14.10;99.50;;;;;;10510029;28;20655;-25
2023/01/08 23:51:37;;;;;;;3.30;0.98;;;15.20;97.00;;;;;;10514915;28;20121;-25
2023/01/08 23:56:40;;;;;;;3.15;0.88;;;16.30;80.70;;;;;;10515890;28;20360;-25
